Time;durP1;ratioP1;P1;durP2;ratioP2;P2;SDS_P1;SDS_P2;PMS_P1;PMS_P2;Temp;Humidity;BMP_temperature;BMP_pressure;BME280_temperature;BME280_humidity;BME280_pressure;Samples;Min_cycle;Max_cycle;Signal;HPM_P1;HPM_P2
2023/12/29 00:00:40;;;;;;;;;3.00;1.00;;;;;10.44;100.00;101445.16;5039953;28;45365;-78
2023/12/29 00:03:06;;;;;;;;;2.00;1.00;;;;;10.45;100.00;101431.03;5040063;28;63007;-78
2023/12/29 00:05:31;;;;;;;;;3.00;2.00;;;;;10.40;100.00;101426.84;5040990;28;46114;-77
2023/12/29 00:07:56;;;;;;;;;2.00;2.00;;;;;10.51;100.00;101440.50;5041193;28;45367;-77
2023/12/29 00:10:22;;;;;;;;;2.00;1.00;;;;;10.63;100.00;101457.72;5041168;28;45313;-77
2023/12/29 00:12:47;;;;;;;;;2.00;1.00;;;;;10.62;100.00;101442.78;5041051;28;45385;-78
2023/12/29 00:15:12;;;;;;;;;0.33;0.33;;;;;10.56;100.00;101427.13;5022644;28;55413;-77
2023/12/29 00:17:40;;;;;;;;;2.33;1.00;;;;;10.72;100.00;101457.38;5035909;28;45362;-77
2023/12/29 00:20:07;;;;;;;;;2.00;2.00;;;;;10.74;100.00;101466.97;5023092;28;45315;-78
2023/12/29 00:22:33;;;;;;;;;3.00;2.00;;;;;10.69;100.00;101450.44;5040589;28;45416;-78
2023/12/29 00:24:58;;;;;;;;;5.00;0.00;;;;;10.80;100.00;101461.47;5020962;28;45538;-78
2023/12/29 00:27:24;;;;;;;;;4.00;2.33;;;;;10.65;100.00;101430.28;5040560;28;45352;-78
2023/12/29 00:29:49;;;;;;;;;2.00;2.00;;;;;10.76;100.00;101445.78;5022866;28;45379;-77
2023/12/29 00:32:14;;;;;;;;;2.00;2.00;;;;;10.70;100.00;101435.44;5039246;28;56136;-77
2023/12/29 00:34:40;;;;;;;;;0.33;0.00;;;;;10.74;100.00;101443.19;5041075;28;45333;-78
2023/12/29 00:37:06;;;;;;;;;1.33;1.33;;;;;10.89;100.00;101463.78;5040689;28;45289;-77
2023/12/29 00:39:38;;;;;;;;;2.67;1.00;;;;;10.84;100.00;101447.19;5023492;28;45405;-77
2023/12/29 00:42:06;;;;;;;;;1.00;1.00;;;;;10.93;100.00;101461.84;5038948;28;45541;-78
2023/12/29 00:44:32;;;;;;;;;1.00;1.00;;;;;10.90;100.00;101444.31;5022184;28;47845;-78
2023/12/29 00:46:59;;;;;;;;;2.67;1.33;;;;;10.92;100.00;101444.28;5019619;28;45388;-78
2023/12/29 00:49:24;;;;;;;;;1.33;1.33;;;;;10.82;100.00;101419.09;5040622;28;45381;-77
2023/12/29 00:51:49;;;;;;;;;2.33;1.00;;;;;10.82;100.00;101430.53;5039852;28;50916;-78
2023/12/29 00:54:15;;;;;;;;;3.00;2.00;;;;;10.90;100.00;101440.81;5033927;28;47668;-78
2023/12/29 00:56:40;;;;;;;;;1.00;1.00;;;;;10.89;100.00;101444.38;5027998;28;45429;-78
2023/12/29 00:59:06;;;;;;;;;3.00;1.00;;;;;10.77;100.00;101428.97;5040229;28;45386;-78
2023/12/29 01:01:35;;;;;;;;;1.00;1.00;;;;;10.77;100.00;101427.19;5039704;28;45534;-78
2023/12/29 01:04:01;;;;;;;;;1.00;1.00;;;;;10.82;100.00;101427.03;5022258;28;46647;-78
2023/12/29 01:06:26;;;;;;;;;1.00;1.00;;;;;10.86;100.00;101441.88;5044611;28;45809;-77
2023/12/29 01:08:51;;;;;;;;;8.00;1.67;;;;;10.72;100.00;101418.56;5040260;28;45284;-77
2023/12/29 01:11:17;;;;;;;;;2.00;2.00;;;;;10.85;100.00;101434.84;5046668;28;45226;-78
2023/12/29 01:13:42;;;;;;;;;2.00;2.00;;;;;10.72;100.00;101413.28;5022147;28;55968;-78
2023/12/29 01:16:07;;;;;;;;;2.00;0.33;;;;;10.80;100.00;101424.41;5040047;28;45285;-77
2023/12/29 01:18:32;;;;;;;;;4.00;1.67;;;;;10.76;100.00;101428.13;5018118;28;45499;-78
2023/12/29 01:20:58;;;;;;;;;3.67;2.00;;;;;10.79;100.00;101432.44;5039810;28;51408;-78
2023/12/29 01:23:23;;;;;;;;;2.67;1.33;;;;;10.73;100.00;101419.44;5021659;28;47001;-78
2023/12/29 01:25:48;;;;;;;;;1.67;1.00;;;;;10.72;100.00;101415.94;5039879;28;45292;-78
2023/12/29 01:28:14;;;;;;;;;5.00;1.67;;;;;10.69;100.00;101418.69;5040757;28;45534;-78
2023/12/29 01:30:39;;;;;;;;;2.67;2.00;;;;;10.70;100.00;101406.34;5035730;28;45464;-78
2023/12/29 01:33:05;;;;;;;;;4.67;2.00;;;;;10.74;100.00;101419.38;5039317;28;45426;-77
2023/12/29 01:35:30;;;;;;;;;1.67;1.67;;;;;10.77;100.00;101421.88;5021686;28;45404;-77
2023/12/29 01:37:56;;;;;;;;;1.33;1.00;;;;;10.72;100.00;101401.84;5039401;28;45506;-77
2023/12/29 01:40:22;;;;;;;;;0.67;0.67;;;;;10.82;100.00;101421.72;5021967;28;45472;-78
2023/12/29 01:42:48;;;;;;;;;1.67;1.00;;;;;10.62;100.00;101396.03;5023625;28;46088;-77
2023/12/29 01:45:25;;;;;;;;;2.33;1.33;;;;;10.80;100.00;101415.59;5033085;28;45397;-78
2023/12/29 01:47:52;;;;;;;;;3.33;2.00;;;;;10.79;100.00;101414.78;5039542;28;45420;-78
2023/12/29 01:50:19;;;;;;;;;8.00;1.33;;;;;10.84;100.00;101417.22;5039323;28;45533;-78
2023/12/29 01:52:47;;;;;;;;;1.33;1.33;;;;;10.96;100.00;101433.50;5038048;28;46916;-78
2023/12/29 01:55:16;;;;;;;;;4.00;1.00;;;;;10.95;100.00;101415.91;5037799;28;45356;-78
2023/12/29 01:57:42;;;;;;;;;1.00;0.00;;;;;11.03;100.00;101430.63;5039383;28;45360;-78
2023/12/29 02:00:09;;;;;;;;;2.00;2.00;;;;;10.79;100.00;101385.66;5039212;28;45531;-78
2023/12/29 02:02:35;;;;;;;;;1.00;1.00;;;;;10.97;100.00;101410.53;5038932;28;45400;-77
2023/12/29 02:05:00;;;;;;;;;3.33;1.00;;;;;11.09;100.00;101420.66;5038935;28;45271;-78
2023/12/29 02:07:30;;;;;;;;;1.00;0.67;;;;;11.02;100.00;101415.66;5021524;28;45273;-78
2023/12/29 02:09:57;;;;;;;;;2.33;1.00;;;;;10.82;100.00;101368.81;5039172;28;45475;-78
2023/12/29 02:12:22;;;;;;;;;3.00;1.67;;;;;11.14;100.00;101425.75;5038873;28;46377;-77
2023/12/29 02:14:48;;;;;;;;;2.00;1.00;;;;;11.12;100.00;101431.13;5037592;28;45329;-77
2023/12/29 02:17:26;;;;;;;;;1.33;1.33;;;;;11.16;100.00;101434.53;5037275;28;45435;-77
2023/12/29 02:19:51;;;;;;;;;3.00;2.00;;;;;11.01;100.00;101401.56;5034854;28;45357;-77
2023/12/29 02:22:17;;;;;;;;;3.00;2.00;;;;;11.13;100.00;101418.72;5038761;28;45419;-77
2023/12/29 02:24:46;;;;;;;;;0.00;0.00;;;;;11.19;100.00;101429.09;5038991;28;45345;-77
2023/12/29 02:27:30;;;;;;;;;2.33;1.00;;;;;11.22;100.00;101428.97;5037614;28;45254;-77
2023/12/29 02:30:23;;;;;;;;;2.33;1.00;;;;;11.19;100.00;101421.16;5039053;28;45557;-77
2023/12/29 02:32:53;;;;;;;;;1.33;0.00;;;;;11.06;100.00;101399.59;5038304;28;46354;-77
2023/12/29 02:35:23;;;;;;;;;3.00;1.00;;;;;11.12;100.00;101406.44;5041091;28;45328;-77
2023/12/29 02:37:48;;;;;;;;;0.67;0.00;;;;;11.19;100.00;101410.56;5018155;28;45448;-77
2023/12/29 02:40:15;;;;;;;;;1.67;1.67;;;;;11.20;100.00;101407.84;5041456;28;45428;-77
2023/12/29 02:42:46;;;;;;;;;3.00;0.67;;;;;11.17;100.00;101401.81;5038260;28;46015;-77
2023/12/29 02:45:11;;;;;;;;;2.33;1.00;;;;;11.11;100.00;101396.75;5038391;28;45492;-76
2023/12/29 02:47:37;;;;;;;;;0.00;0.00;;;;;11.21;100.00;101417.53;5024889;28;45478;-77
2023/12/29 02:50:02;;;;;;;;;2.00;1.00;;;;;11.09;100.00;101396.84;5039768;28;45278;-77
2023/12/29 02:52:27;;;;;;;;;1.00;0.33;;;;;10.94;100.00;101368.31;5040041;28;46436;-77
2023/12/29 02:54:53;;;;;;;;;2.00;1.00;;;;;11.12;100.00;101391.41;5046471;28;45421;-77
2023/12/29 02:57:18;;;;;;;;;5.33;0.33;;;;;11.18;100.00;101395.59;5046768;28;45392;-77
2023/12/29 02:59:46;;;;;;;;;1.33;0.67;;;;;11.14;100.00;101373.69;5039064;28;45294;-78
2023/12/29 03:02:11;;;;;;;;;1.00;0.00;;;;;11.02;100.00;101365.38;5038224;28;45574;-77
2023/12/29 03:04:36;;;;;;;;;2.00;1.00;;;;;11.24;100.00;101376.81;5038910;28;45250;-77
2023/12/29 03:07:02;;;;;;;;;1.00;1.00;;;;;11.25;100.00;101371.47;5038142;28;45207;-78
2023/12/29 03:09:27;;;;;;;;;2.00;0.33;;;;;11.02;100.00;101328.31;5038498;28;45320;-77
2023/12/29 03:11:53;;;;;;;;;1.33;1.00;;;;;11.17;100.00;101370.91;5045527;28;45338;-77
2023/12/29 03:14:18;;;;;;;;;1.00;0.33;;;;;11.09;100.00;101361.56;5044557;28;45317;-78
2023/12/29 03:16:46;;;;;;;;;2.00;0.00;;;;;11.29;100.00;101378.34;5044304;28;45349;-77
2023/12/29 03:19:11;;;;;;;;;3.00;1.00;;;;;11.31;100.00;101365.06;5045308;28;45293;-77
2023/12/29 03:21:36;;;;;;;;;2.00;1.00;;;;;11.30;100.00;101368.63;5038146;28;46539;-78
2023/12/29 03:24:02;;;;;;;;;5.67;2.00;;;;;11.33;100.00;101369.34;5037879;28;53895;-77
2023/12/29 03:26:27;;;;;;;;;3.00;1.00;;;;;11.27;100.00;101369.63;5020206;28;45404;-77
2023/12/29 03:28:52;;;;;;;;;1.00;1.00;;;;;11.16;100.00;101339.22;5037742;28;58321;-77
2023/12/29 03:31:18;;;;;;;;;4.67;2.00;;;;;11.23;100.00;101343.31;5036552;28;51892;-77
2023/12/29 03:33:43;;;;;;;;;1.67;0.67;;;;;11.24;100.00;101345.91;5037684;28;45451;-78
2023/12/29 03:36:09;;;;;;;;;1.00;1.00;;;;;11.29;100.00;101351.00;5041151;28;45810;-77
2023/12/29 03:38:34;;;;;;;;;3.00;1.00;;;;;11.15;100.00;101322.47;5041365;28;45382;-77
2023/12/29 03:40:59;;;;;;;;;4.00;1.00;;;;;11.39;100.00;101368.22;5040179;28;46698;-77
2023/12/29 03:43:27;;;;;;;;;4.00;0.00;;;;;11.40;100.00;101360.22;5019809;28;45385;-76
2023/12/29 03:45:52;;;;;;;;;1.00;1.00;;;;;11.18;100.00;101321.47;5043852;28;45393;-77
2023/12/29 03:48:18;;;;;;;;;3.67;0.67;;;;;11.32;100.00;101346.44;5022961;28;45307;-77
2023/12/29 03:50:43;;;;;;;;;4.67;1.00;;;;;11.43;100.00;101356.59;5045332;28;45392;-77
2023/12/29 03:53:11;;;;;;;;;4.00;2.00;;;;;11.22;100.00;101326.56;5041138;28;45903;-77
2023/12/29 03:55:37;;;;;;;;;3.00;0.33;;;;;11.23;100.00;101314.19;5041366;28;45318;-76
2023/12/29 03:58:03;;;;;;;;;2.67;1.00;;;;;11.43;100.00;101346.88;5038094;28;45535;-77
2023/12/29 04:00:28;;;;;;;;;2.00;1.00;;;;;11.39;100.00;101345.25;5021495;28;45497;-77
2023/12/29 04:02:53;;;;;;;;;3.67;1.00;;;;;11.35;100.00;101338.34;5041321;28;45537;-77
2023/12/29 04:05:19;;;;;;;;;1.33;1.00;;;;;11.40;100.00;101346.13;5040884;28;54769;-77
2023/12/29 04:07:44;;;;;;;;;1.67;1.00;;;;;11.46;100.00;101351.16;5041213;28;45330;-77
2023/12/29 04:10:10;;;;;;;;;2.67;1.00;;;;;11.23;100.00;101309.75;5040861;28;45443;-77
2023/12/29 04:12:36;;;;;;;;;0.67;0.67;;;;;11.46;100.00;101346.72;5029628;28;45806;-77
2023/12/29 04:15:02;;;;;;;;;1.00;1.00;;;;;11.46;100.00;101345.88;5041326;28;45415;-77
2023/12/29 04:17:27;;;;;;;;;6.33;3.00;;;;;11.41;100.00;101330.19;5022063;28;45428;-77
2023/12/29 04:19:53;;;;;;;;;1.33;0.00;;;;;11.43;100.00;101338.03;5022783;28;48103;-77
2023/12/29 04:22:18;;;;;;;;;0.33;0.33;;;;;11.44;100.00;101335.34;5040768;28;45321;-77
2023/12/29 04:24:43;;;;;;;;;3.00;0.67;;;;;11.40;100.00;101335.53;5041041;28;45318;-76
2023/12/29 04:27:09;;;;;;;;;2.33;1.00;;;;;11.34;100.00;101325.19;5046137;28;45396;-77
2023/12/29 04:29:35;;;;;;;;;4.00;2.00;;;;;11.43;100.00;101333.63;5041343;28;46447;-77
2023/12/29 04:32:00;;;;;;;;;2.67;1.00;;;;;11.21;100.00;101294.88;5040246;28;45342;-77
2023/12/29 04:34:25;;;;;;;;;1.00;1.00;;;;;11.17;100.00;101288.84;5040840;28;45360;-77
2023/12/29 04:36:51;;;;;;;;;6.00;1.33;;;;;11.36;100.00;101315.38;5040398;28;45277;-77
2023/12/29 04:39:16;;;;;;;;;1.00;1.00;;;;;11.21;100.00;101292.22;5043015;28;45887;-77
2023/12/29 04:41:44;;;;;;;;;2.00;0.33;;;;;11.38;100.00;101318.84;5022668;28;45365;-77
2023/12/29 04:44:09;;;;;;;;;0.00;0.00;;;;;11.46;100.00;101336.13;5026382;28;45440;-77
2023/12/29 04:46:35;;;;;;;;;2.00;1.00;;;;;11.46;100.00;101325.53;5024520;28;45472;-77
2023/12/29 04:49:02;;;;;;;;;1.00;0.00;;;;;11.31;100.00;101306.78;5044830;28;45503;-77
2023/12/29 04:51:28;;;;;;;;;1.00;1.00;;;;;11.35;100.00;101321.63;5029850;28;61222;-77
2023/12/29 04:53:53;;;;;;;;;2.00;2.00;;;;;11.52;100.00;101336.81;5044820;28;45293;-77
2023/12/29 04:56:19;;;;;;;;;2.00;2.00;;;;;11.45;100.00;101317.69;5049850;28;45379;-77
2023/12/29 04:58:44;;;;;;;;;2.33;0.67;;;;;11.54;100.00;101322.56;5040002;28;45283;-77
2023/12/29 05:01:09;;;;;;;;;0.67;0.67;;;;;11.52;100.00;101327.94;5019354;28;45474;-77
2023/12/29 05:03:35;;;;;;;;;3.00;2.00;;;;;11.54;100.00;101325.22;5037707;28;45643;-77
2023/12/29 05:06:00;;;;;;;;;1.00;1.00;;;;;11.52;100.00;101327.06;5040614;28;45514;-77
2023/12/29 05:08:25;;;;;;;;;1.33;1.00;;;;;11.53;100.00;101342.03;5042277;28;46636;-78
2023/12/29 05:10:51;;;;;;;;;1.00;1.00;;;;;11.31;100.00;101286.47;5038806;28;59568;-77
2023/12/29 05:13:16;;;;;;;;;2.00;1.00;;;;;11.57;100.00;101340.13;5024289;28;45327;-77
2023/12/29 05:15:41;;;;;;;;;0.00;0.00;;;;;11.52;100.00;101321.75;5016646;28;51355;-77
2023/12/29 05:18:06;;;;;;;;;1.67;1.67;;;;;11.49;100.00;101325.41;5026462;28;47019;-77
2023/12/29 05:20:33;;;;;;;;;1.00;0.00;;;;;11.49;100.00;101313.94;5031163;28;59080;-77
2023/12/29 05:22:58;;;;;;;;;0.00;0.00;;;;;11.41;100.00;101302.84;5044805;28;45381;-77
2023/12/29 05:25:24;;;;;;;;;1.00;0.67;;;;;11.31;100.00;101304.16;5039936;28;45368;-77
2023/12/29 05:27:49;;;;;;;;;0.67;0.00;;;;;11.60;100.00;101335.56;5039435;28;46052;-78
2023/12/29 05:30:15;;;;;;;;;5.00;1.00;;;;;11.32;100.00;101298.78;5039839;28;45365;-78
2023/12/29 05:32:41;;;;;;;;;0.00;0.00;;;;;11.38;100.00;101309.13;5039734;28;45322;-77
2023/12/29 05:35:06;;;;;;;;;1.33;1.00;;;;;11.59;100.00;101352.38;5039496;28;45533;-78
2023/12/29 05:37:32;;;;;;;;;3.00;0.67;;;;;11.45;100.00;101326.47;5021240;28;46533;-77
2023/12/29 05:39:57;;;;;;;;;1.33;1.00;;;;;11.45;100.00;101336.22;5039150;28;53763;-77
2023/12/29 05:42:22;;;;;;;;;0.00;0.00;;;;;11.55;100.00;101345.47;5039330;28;46614;-77
2023/12/29 05:44:47;;;;;;;;;1.67;0.00;;;;;11.58;100.00;101355.09;5021272;28;45572;-77
2023/12/29 05:47:13;;;;;;;;;2.33;1.00;;;;;11.52;100.00;101334.16;5039084;28;45301;-77
2023/12/29 05:49:39;;;;;;;;;3.00;0.67;;;;;11.42;100.00;101326.59;5039030;28;56735;-77
2023/12/29 05:52:07;;;;;;;;;4.33;2.00;;;;;11.58;100.00;101345.38;5038156;28;45329;-78
2023/12/29 05:54:35;;;;;;;;;3.33;1.00;;;;;11.54;100.00;101338.47;5034637;28;45474;-77
2023/12/29 05:57:01;;;;;;;;;3.00;1.00;;;;;11.51;100.00;101341.25;5035994;28;45458;-77
2023/12/29 05:59:26;;;;;;;;;3.00;1.00;;;;;11.43;100.00;101307.13;5045360;28;45373;-78
2023/12/29 06:01:52;;;;;;;;;6.00;0.67;;;;;11.47;100.00;101319.31;5021103;28;45712;-77
2023/12/29 06:04:17;;;;;;;;;4.00;1.33;;;;;11.58;100.00;101341.84;5039426;28;45454;-77
2023/12/29 06:06:43;;;;;;;;;6.33;2.00;;;;;11.58;100.00;101318.00;5039165;28;45327;-77
2023/12/29 06:09:11;;;;;;;;;2.00;1.00;;;;;11.59;100.00;101327.66;5039144;28;45405;-78
2023/12/29 06:11:37;;;;;;;;;1.33;0.67;;;;;11.53;100.00;101320.84;5038169;28;45306;-77
2023/12/29 06:14:03;;;;;;;;;2.00;1.00;;;;;11.60;100.00;101334.69;5038960;28;45302;-77
2023/12/29 06:16:30;;;;;;;;;4.00;1.00;;;;;11.46;100.00;101332.63;5038054;28;46370;-77
2023/12/29 06:18:55;;;;;;;;;2.00;1.00;;;;;11.64;100.00;101357.47;5039722;28;45411;-77
2023/12/29 06:21:21;;;;;;;;;3.00;1.00;;;;;11.65;100.00;101349.44;5021485;28;45322;-77
2023/12/29 06:23:46;;;;;;;;;3.00;1.00;;;;;11.62;100.00;101352.22;5039923;28;45463;-77
2023/12/29 06:26:19;;;;;;;;;1.00;1.00;;;;;11.65;100.00;101361.88;5022683;28;47065;-77
2023/12/29 06:28:45;;;;;;;;;1.00;0.67;;;;;11.66;100.00;101364.44;5021062;28;45305;-77
2023/12/29 06:31:10;;;;;;;;;4.00;1.00;;;;;11.53;100.00;101344.69;5039501;28;45373;-78
2023/12/29 06:33:36;;;;;;;;;0.00;0.00;;;;;11.63;100.00;101353.97;5038450;28;45326;-77
2023/12/29 06:36:02;;;;;;;;;4.67;2.67;;;;;11.54;100.00;101324.34;5038648;28;46519;-78
2023/12/29 06:38:28;;;;;;;;;3.00;0.33;;;;;11.44;100.00;101316.81;5008470;28;45504;-78
2023/12/29 06:40:53;;;;;;;;;4.00;1.00;;;;;11.65;100.00;101341.50;5008297;28;45218;-78
2023/12/29 06:43:18;;;;;;;;;0.00;0.00;;;;;11.54;100.00;101319.94;5038563;28;45219;-78
2023/12/29 06:45:44;;;;;;;;;2.00;1.00;;;;;11.49;100.00;101308.66;5038307;28;50398;-78
2023/12/29 06:48:09;;;;;;;;;2.33;0.00;;;;;11.58;100.00;101325.97;5038436;28;45226;-78
2023/12/29 06:50:35;;;;;;;;;0.67;0.33;;;;;11.51;100.00;101309.47;5038234;28;57309;-78
2023/12/29 06:53:02;;;;;;;;;2.00;0.00;;;;;11.68;100.00;101343.19;5038518;28;45495;-77
2023/12/29 06:55:28;;;;;;;;;1.00;0.00;;;;;11.57;100.00;101311.84;5038582;28;46459;-78
2023/12/29 06:57:53;;;;;;;;;1.00;1.00;;;;;11.72;100.00;101345.66;5017725;28;45442;-77
2023/12/29 07:00:18;;;;;;;;;0.67;0.00;;;;;11.55;100.00;101304.91;5052220;28;45431;-77
2023/12/29 07:02:44;;;;;;;;;2.00;0.00;;;;;11.60;100.00;101329.38;5037505;28;45409;-79
2023/12/29 07:05:11;;;;;;;;;2.00;0.33;;;;;11.70;100.00;101336.00;5031091;28;61309;-79
2023/12/29 07:07:37;;;;;;;;;1.67;1.33;;;;;11.57;100.00;101316.28;5035813;28;45398;-79
2023/12/29 07:10:03;;;;;;;;;0.00;0.00;;;;;11.42;100.00;101292.16;5045616;28;45376;-78
2023/12/29 07:12:29;;;;;;;;;2.67;1.00;;;;;11.62;100.00;101331.03;5050503;28;45428;-79
2023/12/29 07:14:54;;;;;;;;;0.00;0.00;;;;;11.49;100.00;101306.88;5046232;28;45409;-79
2023/12/29 07:17:22;;;;;;;;;3.00;0.00;;;;;11.55;100.00;101311.03;5038798;28;57708;-79
2023/12/29 07:19:47;;;;;;;;;2.00;0.33;;;;;11.47;100.00;101305.22;5042310;28;45319;-78
2023/12/29 07:22:12;;;;;;;;;0.00;0.00;;;;;11.41;100.00;101300.19;5042461;28;45558;-78
2023/12/29 07:24:38;;;;;;;;;2.00;1.00;;;;;11.33;100.00;101299.63;5049687;28;45447;-79
2023/12/29 07:27:04;;;;;;;;;3.67;0.67;;;;;11.26;100.00;101303.47;5040387;28;45368;-79
2023/12/29 07:29:29;;;;;;;;;2.67;1.00;;;;;11.29;100.00;101303.31;5052811;28;45374;-79
2023/12/29 07:31:55;;;;;;;;;0.33;0.00;;;;;11.10;100.00;101289.13;5041974;28;45372;-79
2023/12/29 07:34:21;;;;;;;;;1.00;1.00;;;;;11.33;100.00;101315.53;5043246;28;54874;-78
2023/12/29 07:36:46;;;;;;;;;3.00;1.00;;;;;11.25;100.00;101322.94;5041473;28;45444;-79
2023/12/29 07:39:11;;;;;;;;;0.00;0.00;;;;;11.20;100.00;101306.38;5040067;28;45612;-79
2023/12/29 07:41:41;;;;;;;;;0.00;0.00;;;;;11.07;100.00;101298.09;5049061;28;45384;-78
2023/12/29 07:44:07;;;;;;;;;0.00;0.00;;;;;11.08;100.00;101307.75;5032090;28;45600;-79
2023/12/29 07:46:32;;;;;;;;;1.00;1.00;;;;;11.09;100.00;101298.91;5028090;28;45520;-79
2023/12/29 07:48:57;;;;;;;;;2.00;1.00;;;;;11.12;100.00;101322.59;5048926;28;59297;-79
2023/12/29 07:51:23;;;;;;;;;4.67;1.00;;;;;11.04;100.00;101313.22;5041014;28;61844;-79
2023/12/29 07:53:48;;;;;;;;;1.00;1.00;;;;;11.19;100.00;101328.50;5041317;28;46127;-79
2023/12/29 07:56:14;;;;;;;;;0.00;0.00;;;;;11.12;100.00;101327.03;5022234;28;68654;-79
2023/12/29 07:58:39;;;;;;;;;0.00;0.00;;;;;11.16;100.00;101320.69;5041016;28;45400;-79
2023/12/29 08:01:04;;;;;;;;;0.00;0.00;;;;;11.11;100.00;101310.28;5040936;28;45471;-78
2023/12/29 08:03:30;;;;;;;;;3.33;0.00;;;;;11.16;100.00;101323.34;5039814;28;53438;-79
2023/12/29 08:05:55;;;;;;;;;0.00;0.00;;;;;11.15;100.00;101324.25;5041972;28;58136;-79
2023/12/29 08:08:20;;;;;;;;;1.00;1.00;;;;;11.14;100.00;101319.88;5023220;28;45427;-79
2023/12/29 08:10:46;;;;;;;;;1.00;1.00;;;;;11.04;100.00;101306.16;5041014;28;46166;-79
2023/12/29 08:13:11;;;;;;;;;0.00;0.00;;;;;11.12;100.00;101314.66;5040770;28;45413;-79
2023/12/29 08:15:37;;;;;;;;;1.33;0.33;;;;;11.08;100.00;101320.13;5022893;28;45527;-79
2023/12/29 08:18:03;;;;;;;;;1.00;1.00;;;;;11.11;100.00;101325.28;5044397;28;45360;-79
2023/12/29 08:20:29;;;;;;;;;0.00;0.00;;;;;10.97;100.00;101307.31;5032740;28;45590;-79
2023/12/29 08:22:57;;;;;;;;;0.00;0.00;;;;;11.09;100.00;101319.22;5040297;28;45526;-79
2023/12/29 08:25:22;;;;;;;;;0.67;0.67;;;;;11.02;100.00;101309.78;5047315;28;59624;-79
2023/12/29 08:27:48;;;;;;;;;0.33;0.33;;;;;11.14;100.00;101326.03;5035989;28;45493;-79
2023/12/29 08:30:13;;;;;;;;;1.33;1.00;;;;;11.07;100.00;101291.91;5045833;28;45435;-80
2023/12/29 08:32:39;;;;;;;;;1.00;0.33;;;;;10.99;100.00;101282.50;5028614;28;46641;-79
2023/12/29 08:35:06;;;;;;;;;2.00;2.00;;;;;11.16;100.00;101318.88;5049140;28;45372;-79
2023/12/29 08:37:33;;;;;;;;;2.67;0.00;;;;;11.11;100.00;101302.34;5029795;28;45448;-79
2023/12/29 08:39:58;;;;;;;;;2.00;0.00;;;;;11.08;100.00;101293.66;5045291;28;45596;-78
2023/12/29 08:42:24;;;;;;;;;0.00;0.00;;;;;11.32;100.00;101330.53;5049793;28;46416;-79
2023/12/29 08:44:49;;;;;;;;;0.67;0.00;;;;;11.36;100.00;101345.38;5027023;28;45551;-78
2023/12/29 08:47:15;;;;;;;;;1.00;0.67;;;;;11.23;100.00;101320.34;5047351;28;45704;-81
2023/12/29 08:49:43;;;;;;;;;1.00;1.00;;;;;11.40;100.00;101344.34;5027793;28;45318;-79
2023/12/29 08:52:11;;;;;;;;;1.00;1.00;;;;;11.33;100.00;101326.13;5040089;28;45625;-80
2023/12/29 08:54:39;;;;;;;;;0.00;0.00;;;;;11.27;100.00;101307.84;5040473;28;45359;-80
2023/12/29 08:57:06;;;;;;;;;2.00;1.00;;;;;11.50;100.00;101342.16;5040017;28;45302;-79
2023/12/29 08:59:32;;;;;;;;;0.00;0.00;;;;;11.42;100.00;101328.38;5030418;28;45373;-79
2023/12/29 09:01:57;;;;;;;;;1.00;1.00;;;;;11.56;100.00;101352.50;5039210;28;46351;-79
2023/12/29 09:04:22;;;;;;;;;3.67;0.33;;;;;11.47;100.00;101344.94;5039965;28;45389;-79
2023/12/29 09:06:48;;;;;;;;;0.33;0.00;;;;;11.67;100.00;101363.50;5039872;28;45442;-79
2023/12/29 09:09:13;;;;;;;;;1.33;0.00;;;;;11.59;100.00;101341.78;5033540;28;45404;-79
2023/12/29 09:11:39;;;;;;;;;2.00;2.00;;;;;11.80;100.00;101366.53;5039771;28;45932;-80
2023/12/29 09:14:07;;;;;;;;;2.00;2.00;;;;;11.71;100.00;101335.13;5039877;28;45391;-79
2023/12/29 09:16:35;;;;;;;;;2.00;0.00;;;;;11.78;100.00;101347.19;5039031;28;45530;-80
2023/12/29 09:19:03;;;;;;;;;0.33;0.33;;;;;11.96;100.00;101373.75;5021641;28;45515;-80
2023/12/29 09:21:29;;;;;;;;;2.00;0.00;;;;;11.91;100.00;101356.34;5042827;28;45423;-80
2023/12/29 09:23:54;;;;;;;;;0.00;0.00;;;;;11.77;100.00;101321.63;5029896;28;45463;-80
2023/12/29 09:26:20;;;;;;;;;0.33;0.00;;;;;11.87;100.00;101337.06;5051102;28;45367;-80
2023/12/29 09:28:45;;;;;;;;;2.67;1.00;;;;;12.05;100.00;101353.91;5039807;28;45543;-80
2023/12/29 09:31:11;;;;;;;;;2.00;0.67;;;;;12.15;100.00;101375.56;5039855;28;45907;-80
2023/12/29 09:33:37;;;;;;;;;1.00;1.00;;;;;12.34;100.00;101387.06;5044372;28;45434;-81
2023/12/29 09:36:03;;;;;;;;;2.00;1.00;;;;;12.39;100.00;101378.00;5039994;28;45582;-80
2023/12/29 09:38:28;;;;;;;;;4.00;0.00;;;;;12.47;100.00;101386.47;5036709;28;45313;-79
2023/12/29 09:41:01;;;;;;;;;1.00;1.00;;;;;12.45;100.00;101363.59;5048689;28;62512;-83
2023/12/29 09:43:28;;;;;;;;;1.67;0.67;;;;;12.53;100.00;101350.84;5047122;28;45458;-80
2023/12/29 09:45:55;;;;;;;;;2.33;1.00;;;;;12.60;100.00;101359.38;5026354;28;45563;-82
2023/12/29 09:48:26;;;;;;;;;1.33;1.33;;;;;12.82;100.00;101382.19;5021343;28;45649;-79
2023/12/29 09:50:52;;;;;;;;;2.00;1.00;;;;;12.83;100.00;101378.59;5044492;28;46058;-80
2023/12/29 09:53:20;;;;;;;;;1.00;1.00;;;;;12.69;100.00;101346.53;5031041;28;45710;-80
2023/12/29 09:55:48;;;;;;;;;4.00;1.00;;;;;12.83;100.00;101369.75;5039589;28;45500;-80
2023/12/29 09:58:15;;;;;;;;;2.00;0.00;;;;;12.85;100.00;101378.53;5037803;28;45428;-80
2023/12/29 10:00:42;;;;;;;;;4.00;0.33;;;;;12.86;100.00;101370.47;5039063;28;45290;-80
2023/12/29 10:03:09;;;;;;;;;2.00;1.00;;;;;12.89;100.00;101365.00;5037347;28;45372;-81
2023/12/29 10:05:34;;;;;;;;;1.33;0.33;;;;;12.92;100.00;101356.94;5014928;28;45304;-80
2023/12/29 10:08:03;;;;;;;;;0.67;0.00;;;;;13.00;100.00;101375.13;5038971;28;45432;-80
2023/12/29 10:10:30;;;;;;;;;2.00;2.00;;;;;13.01;100.00;101379.50;5012661;28;47043;-80
2023/12/29 10:12:57;;;;;;;;;0.67;0.67;;;;;12.95;100.00;101372.72;5038853;28;45401;-81
2023/12/29 10:15:41;;;;;;;;;1.00;1.00;;;;;12.98;100.00;101377.88;5037632;28;45442;-80
2023/12/29 10:18:56;;;;;;;;;0.00;0.00;;;;;12.79;100.00;101353.13;5027573;28;45289;-80
2023/12/29 10:21:28;;;;;;;;;1.67;1.00;;;;;12.87;100.00;101358.06;5005738;28;45456;-81
2023/12/29 10:24:03;;;;;;;;;0.67;0.00;;;;;12.99;100.00;101382.22;5037577;28;45496;-80
2023/12/29 10:26:28;;;;;;;;;0.00;0.00;;;;;12.99;100.00;101381.34;5038663;28;45434;-81
2023/12/29 10:28:55;;;;;;;;;0.00;0.00;;;;;13.00;100.00;101391.06;5035598;28;45631;-80
2023/12/29 10:31:22;;;;;;;;;0.00;0.00;;;;;12.97;100.00;101388.56;5035742;28;45591;-80
2023/12/29 10:33:50;;;;;;;;;3.00;0.00;;;;;12.88;100.00;101349.16;5020406;28;45402;-80
2023/12/29 10:36:16;;;;;;;;;0.00;0.00;;;;;13.07;100.00;101350.00;5038677;28;45302;-81
2023/12/29 10:38:44;;;;;;;;;0.00;0.00;;;;;13.20;100.00;101368.88;5020439;28;45310;-83
2023/12/29 10:41:18;;;;;;;;;1.33;1.33;;;;;12.94;100.00;101336.47;5020852;28;46561;-84
2023/12/29 10:43:47;;;;;;;;;1.33;0.33;;;;;13.13;100.00;101363.00;5037488;28;45423;-81
2023/12/29 10:46:12;;;;;;;;;1.33;0.00;;;;;13.10;100.00;101351.66;5044768;28;45369;-81
2023/12/29 10:48:39;;;;;;;;;2.00;0.00;;;;;13.04;100.00;101336.88;5038236;28;45392;-82
2023/12/29 10:51:05;;;;;;;;;3.00;2.00;;;;;13.04;100.00;101348.38;5020848;28;47060;-81
2023/12/29 10:53:32;;;;;;;;;1.00;0.00;;;;;12.80;100.00;101312.38;5027518;28;45346;-82
2023/12/29 10:56:00;;;;;;;;;1.33;0.67;;;;;12.79;100.00;101299.19;5037240;28;45416;-81
2023/12/29 10:58:29;;;;;;;;;0.67;0.67;;;;;13.18;100.00;101347.72;5021038;28;45526;-82
2023/12/29 11:00:54;;;;;;;;;2.00;1.00;;;;;13.09;100.00;101348.16;5019532;28;46492;-81
2023/12/29 11:03:21;;;;;;;;;4.67;1.00;;;;;12.99;100.00;101318.50;5038199;28;45416;-82
2023/12/29 11:05:46;;;;;;;;;0.00;0.00;;;;;12.87;100.00;101302.31;5039389;28;45438;-83
2023/12/29 11:08:19;;;;;;;;;1.67;0.00;;;;;13.16;100.00;101351.38;5042725;28;45348;-85
2023/12/29 11:10:58;;;;;;;;;1.00;0.67;;;;;12.41;100.00;101221.41;5017277;28;46325;-85
2023/12/29 11:13:29;;;;;;;;;1.00;0.00;;;;;12.66;100.00;101255.59;5013305;28;45759;-84